Gizemdeniz Sultan — TCPL2 — position and weather

sailwx.info

Track history (hours):
 
Tides and Currents Weather Stations Pressure Air Temp Water Temp Dewpoint Dewpoint Depression Visibility Wind Speed Wind Dir Waves Ship Positions

Gizemdeniz Sultan

Last reported at 2013-Aug-19 03:20 UTC. Time now 2014-Nov-20 22:47 UTC.
Position N 51°54' E 004°26'.
Warning: this ship's position is years out of date!

Length 105 m; draft 6.2 m.

Type: Ship (hazmat cat A). MMSI: 271000877.

Date/timePositionNaut miles runAvg speedWind from/ knotsBaromVisibWave heightAir tempDewpointWater temp
2013-Aug-19 03:20N 51°54' E 004°26'0 0.0
2013-Aug-19 01:28N 51°54' E 004°26'0 0.0
2013-Aug-19 00:32N 51°54' E 004°26'0 0.0
2013-Aug-18 23:16N 51°54' E 004°26'0 0.0
2013-Aug-18 16:10N 51°54' E 004°26'0 0.0
2013-Aug-16 14:18N 51°54' E 004°26'5 6.7
2013-Aug-16 13:32N 51°53' E 004°18'0 0.0
2013-Aug-15 12:33N 51°53' E 004°17'4 3.8
2013-Aug-15 11:26N 51°56' E 004°13'910.0
2013-Aug-15 10:32N 51°60' E 003°59'9 8.6
2013-Aug-15 09:32N 51°57' E 003°46'1 0.2
2013-Aug-15 03:19N 51°56' E 003°45'0 0.1
2013-Aug-15 02:30N 51°56' E 003°45'7 7.4
2013-Aug-15 01:30N 51°57' E 003°34'1110.8
2013-Aug-15 00:32N 51°54' E 003°17'1111.2
2013-Aug-14 23:31N 51°51' E 002°60'1111.5
2013-Aug-14 22:32N 51°48' E 002°42'1311.8
2013-Aug-14 21:29N 51°39' E 002°27'1212.5
2013-Aug-14 20:30N 51°30' E 002°15'2512.5
2013-Aug-14 18:30N 51°09' E 001°53'1814.1
2013-Aug-14 17:12N 50°57' E 001°31'  
Track history (hours):
 
Tides and Currents Weather Stations Pressure Air Temp Water Temp Dewpoint Dewpoint Depression Visibility Wind Speed Wind Dir Waves Ship Positions

Gizemdeniz Sultan

Last reported at 2013-Aug-19 03:20 UTC. Time now 2014-Nov-20 22:47 UTC.
Position N 51°54' E 004°26'.
Warning: this ship's position is years out of date!

Length 105 m; draft 6.2 m.

Type: Ship (hazmat cat A). MMSI: 271000877.

Date/timePositionNaut miles runAvg speedWind from/ knotsBaromVisibWave heightAir tempDewpointWater temp
2013-Aug-19 03:20N 51°54' E 004°26'0 0.0
2013-Aug-19 01:28N 51°54' E 004°26'0 0.0
2013-Aug-19 00:32N 51°54' E 004°26'0 0.0
2013-Aug-18 23:16N 51°54' E 004°26'0 0.0
2013-Aug-18 16:10N 51°54' E 004°26'0 0.0
2013-Aug-16 14:18N 51°54' E 004°26'5 6.7
2013-Aug-16 13:32N 51°53' E 004°18'0 0.0
2013-Aug-15 12:33N 51°53' E 004°17'4 3.8
2013-Aug-15 11:26N 51°56' E 004°13'910.0
2013-Aug-15 10:32N 51°60' E 003°59'9 8.6
2013-Aug-15 09:32N 51°57' E 003°46'1 0.2
2013-Aug-15 03:19N 51°56' E 003°45'0 0.1
2013-Aug-15 02:30N 51°56' E 003°45'7 7.4
2013-Aug-15 01:30N 51°57' E 003°34'1110.8
2013-Aug-15 00:32N 51°54' E 003°17'1111.2
2013-Aug-14 23:31N 51°51' E 002°60'1111.5
2013-Aug-14 22:32N 51°48' E 002°42'1311.8
2013-Aug-14 21:29N 51°39' E 002°27'1212.5
2013-Aug-14 20:30N 51°30' E 002°15'2512.5
2013-Aug-14 18:30N 51°09' E 001°53'1814.1
2013-Aug-14 17:12N 50°57' E 001°31'  

Dump ship's entire track history